sensor_id;sensor_type;location;lat;lon;timestamp;temperature;humidity
59282;DHT22;45054;52.062;10.010;2023-05-10T00:01:26;13.10;99.90
59282;DHT22;45054;52.062;10.010;2023-05-10T00:03:51;13.10;99.90
59282;DHT22;45054;52.062;10.010;2023-05-10T00:06:16;13.00;99.90
59282;DHT22;45054;52.062;10.010;2023-05-10T00:08:42;13.00;99.90
59282;DHT22;45054;52.062;10.010;2023-05-10T00:11:07;13.00;99.90
59282;DHT22;45054;52.062;10.010;2023-05-10T00:13:34;13.00;99.90
59282;DHT22;45054;52.062;10.010;2023-05-10T00:16:00;13.00;99.90
59282;DHT22;45054;52.062;10.010;2023-05-10T00:18:25;13.00;99.90
59282;DHT22;45054;52.062;10.010;2023-05-10T00:20:50;13.10;99.90
59282;DHT22;45054;52.062;10.010;2023-05-10T00:23:16;13.10;99.90
59282;DHT22;45054;52.062;10.010;2023-05-10T00:25:41;13.00;99.90
59282;DHT22;45054;52.062;10.010;2023-05-10T00:28:07;13.00;99.90
59282;DHT22;45054;52.062;10.010;2023-05-10T00:30:34;13.00;99.90
59282;DHT22;45054;52.062;10.010;2023-05-10T00:32:59;12.90;99.90
59282;DHT22;45054;52.062;10.010;2023-05-10T00:35:24;12.90;99.90
59282;DHT22;45054;52.062;10.010;2023-05-10T00:37:50;13.00;99.90
59282;DHT22;45054;52.062;10.010;2023-05-10T00:40:15;12.90;99.90
59282;DHT22;45054;52.062;10.010;2023-05-10T00:42:41;12.80;99.90
59282;DHT22;45054;52.062;10.010;2023-05-10T00:45:06;12.80;99.90
59282;DHT22;45054;52.062;10.010;2023-05-10T00:47:33;12.80;99.90
59282;DHT22;45054;52.062;10.010;2023-05-10T00:49:59;12.80;99.90
59282;DHT22;45054;52.062;10.010;2023-05-10T00:52:24;12.80;99.90
59282;DHT22;45054;52.062;10.010;2023-05-10T00:54:50;12.80;99.90
59282;DHT22;45054;52.062;10.010;2023-05-10T00:57:16;12.80;99.90
59282;DHT22;45054;52.062;10.010;2023-05-10T00:59:41;12.80;99.90
59282;DHT22;45054;52.062;10.010;2023-05-10T01:02:07;12.80;99.90
59282;DHT22;45054;52.062;10.010;2023-05-10T01:04:34;12.90;99.90
59282;DHT22;45054;52.062;10.010;2023-05-10T01:07:00;12.90;99.90
59282;DHT22;45054;52.062;10.010;2023-05-10T01:09:25;12.80;99.90
59282;DHT22;45054;52.062;10.010;2023-05-10T01:11:50;12.80;99.90
59282;DHT22;45054;52.062;10.010;2023-05-10T01:14:16;12.70;99.90
59282;DHT22;45054;52.062;10.010;2023-05-10T01:16:43;12.70;99.90
59282;DHT22;45054;52.062;10.010;2023-05-10T01:19:10;12.70;99.90
59282;DHT22;45054;52.062;10.010;2023-05-10T01:21:41;12.70;99.90
59282;DHT22;45054;52.062;10.010;2023-05-10T01:26:54;12.70;99.90
59282;DHT22;45054;52.062;10.010;2023-05-10T01:29:35;12.70;99.90
59282;DHT22;45054;52.062;10.010;2023-05-10T01:32:10;12.70;99.90
59282;DHT22;45054;52.062;10.010;2023-05-10T01:34:40;12.70;99.90
59282;DHT22;45054;52.062;10.010;2023-05-10T01:37:09;12.60;99.90
59282;DHT22;45054;52.062;10.010;2023-05-10T01:39:36;12.60;99.90
59282;DHT22;45054;52.062;10.010;2023-05-10T01:42:06;12.70;99.90
59282;DHT22;45054;52.062;10.010;2023-05-10T01:44:34;12.70;99.90
59282;DHT22;45054;52.062;10.010;2023-05-10T01:47:01;12.70;99.90
59282;DHT22;45054;52.062;10.010;2023-05-10T01:49:30;12.70;99.90
59282;DHT22;45054;52.062;10.010;2023-05-10T01:51:59;12.70;99.90
59282;DHT22;45054;52.062;10.010;2023-05-10T01:54:25;12.70;99.90
59282;DHT22;45054;52.062;10.010;2023-05-10T01:56:55;12.70;99.90
59282;DHT22;45054;52.062;10.010;2023-05-10T01:59:21;12.70;99.90
59282;DHT22;45054;52.062;10.010;2023-05-10T02:01:46;12.70;99.90
59282;DHT22;45054;52.062;10.010;2023-05-10T02:04:13;12.60;99.90
59282;DHT22;45054;52.062;10.010;2023-05-10T02:06:42;12.70;99.90
59282;DHT22;45054;52.062;10.010;2023-05-10T02:09:07;12.70;99.90
59282;DHT22;45054;52.062;10.010;2023-05-10T02:11:34;12.80;99.90
59282;DHT22;45054;52.062;10.010;2023-05-10T02:13:59;12.90;99.90
59282;DHT22;45054;52.062;10.010;2023-05-10T02:16:26;12.90;99.90
59282;DHT22;45054;52.062;10.010;2023-05-10T02:18:52;13.00;99.90
59282;DHT22;45054;52.062;10.010;2023-05-10T02:21:18;13.00;99.90
59282;DHT22;45054;52.062;10.010;2023-05-10T02:23:45;13.00;99.90
59282;DHT22;45054;52.062;10.010;2023-05-10T02:26:11;12.90;99.90
59282;DHT22;45054;52.062;10.010;2023-05-10T02:28:37;12.90;99.90
59282;DHT22;45054;52.062;10.010;2023-05-10T02:31:04;13.00;99.90
59282;DHT22;45054;52.062;10.010;2023-05-10T02:33:30;12.90;99.90
59282;DHT22;45054;52.062;10.010;2023-05-10T02:35:56;13.00;99.90
59282;DHT22;45054;52.062;10.010;2023-05-10T02:38:23;13.00;99.90
59282;DHT22;45054;52.062;10.010;2023-05-10T02:40:51;13.00;99.90
59282;DHT22;45054;52.062;10.010;2023-05-10T02:43:16;13.00;99.90
59282;DHT22;45054;52.062;10.010;2023-05-10T02:45:42;13.10;99.90
59282;DHT22;45054;52.062;10.010;2023-05-10T02:48:08;13.10;99.90
59282;DHT22;45054;52.062;10.010;2023-05-10T02:50:33;13.10;99.90
59282;DHT22;45054;52.062;10.010;2023-05-10T02:53:01;13.00;99.90
59282;DHT22;45054;52.062;10.010;2023-05-10T02:55:31;13.00;99.90
59282;DHT22;45054;52.062;10.010;2023-05-10T02:57:59;13.00;99.90
59282;DHT22;45054;52.062;10.010;2023-05-10T03:00:25;13.00;99.90
59282;DHT22;45054;52.062;10.010;2023-05-10T03:02:51;13.00;99.90
59282;DHT22;45054;52.062;10.010;2023-05-10T03:05:16;13.00;99.90
59282;DHT22;45054;52.062;10.010;2023-05-10T03:07:42;13.00;99.90
59282;DHT22;45054;52.062;10.010;2023-05-10T03:10:07;13.10;99.90
59282;DHT22;45054;52.062;10.010;2023-05-10T03:12:45;13.10;99.90
59282;DHT22;45054;52.062;10.010;2023-05-10T03:15:17;13.10;99.90
59282;DHT22;45054;52.062;10.010;2023-05-10T03:17:45;13.10;99.90
59282;DHT22;45054;52.062;10.010;2023-05-10T03:20:15;13.10;99.90
59282;DHT22;45054;52.062;10.010;2023-05-10T03:22:44;13.10;99.90
59282;DHT22;45054;52.062;10.010;2023-05-10T03:25:10;13.20;99.90
59282;DHT22;45054;52.062;10.010;2023-05-10T03:27:36;13.10;99.90
59282;DHT22;45054;52.062;10.010;2023-05-10T03:30:02;13.10;99.90
59282;DHT22;45054;52.062;10.010;2023-05-10T03:32:29;13.10;99.90
59282;DHT22;45054;52.062;10.010;2023-05-10T03:34:55;13.20;99.90
59282;DHT22;45054;52.062;10.010;2023-05-10T03:37:20;13.20;99.90
59282;DHT22;45054;52.062;10.010;2023-05-10T03:39:45;13.30;99.90
59282;DHT22;45054;52.062;10.010;2023-05-10T03:42:11;13.30;99.90
59282;DHT22;45054;52.062;10.010;2023-05-10T03:44:36;13.30;99.90
59282;DHT22;45054;52.062;10.010;2023-05-10T03:47:02;13.30;99.90
59282;DHT22;45054;52.062;10.010;2023-05-10T03:49:29;13.40;99.90
59282;DHT22;45054;52.062;10.010;2023-05-10T03:51:54;13.40;99.90
59282;DHT22;45054;52.062;10.010;2023-05-10T03:54:19;13.50;99.90
59282;DHT22;45054;52.062;10.010;2023-05-10T03:56:45;13.50;99.90
59282;DHT22;45054;52.062;10.010;2023-05-10T03:59:10;13.50;99.90
59282;DHT22;45054;52.062;10.010;2023-05-10T04:01:36;13.50;99.90
59282;DHT22;45054;52.062;10.010;2023-05-10T04:04:01;13.60;99.90
59282;DHT22;45054;52.062;10.010;2023-05-10T04:06:28;13.60;99.90
59282;DHT22;45054;52.062;10.010;2023-05-10T04:08:53;13.60;99.90
59282;DHT22;45054;52.062;10.010;2023-05-10T04:11:19;13.60;99.90
59282;DHT22;45054;52.062;10.010;2023-05-10T04:13:44;13.60;99.90
59282;DHT22;45054;52.062;10.010;2023-05-10T04:16:10;13.70;99.90
59282;DHT22;45054;52.062;10.010;2023-05-10T04:18:35;13.70;99.90
59282;DHT22;45054;52.062;10.010;2023-05-10T04:21:00;13.70;99.90
59282;DHT22;45054;52.062;10.010;2023-05-10T04:23:27;13.80;99.90
59282;DHT22;45054;52.062;10.010;2023-05-10T04:25:58;13.80;99.90
59282;DHT22;45054;52.062;10.010;2023-05-10T04:28:23;13.80;99.90
59282;DHT22;45054;52.062;10.010;2023-05-10T04:30:49;13.80;99.90
59282;DHT22;45054;52.062;10.010;2023-05-10T04:33:14;13.80;99.90
59282;DHT22;45054;52.062;10.010;2023-05-10T04:35:40;13.90;99.90
59282;DHT22;45054;52.062;10.010;2023-05-10T04:38:05;13.80;99.90
59282;DHT22;45054;52.062;10.010;2023-05-10T04:40:32;13.80;99.90
59282;DHT22;45054;52.062;10.010;2023-05-10T04:42:58;13.80;99.90
59282;DHT22;45054;52.062;10.010;2023-05-10T04:45:23;13.80;99.90
59282;DHT22;45054;52.062;10.010;2023-05-10T04:47:49;13.80;99.90
59282;DHT22;45054;52.062;10.010;2023-05-10T04:50:14;13.80;99.90
59282;DHT22;45054;52.062;10.010;2023-05-10T04:52:39;13.70;99.90
59282;DHT22;45054;52.062;10.010;2023-05-10T04:55:05;13.60;99.90
59282;DHT22;45054;52.062;10.010;2023-05-10T04:57:32;13.60;99.90
59282;DHT22;45054;52.062;10.010;2023-05-10T04:59:57;13.50;99.90
59282;DHT22;45054;52.062;10.010;2023-05-10T05:02:23;13.50;99.90
59282;DHT22;45054;52.062;10.010;2023-05-10T05:04:48;13.40;99.90
59282;DHT22;45054;52.062;10.010;2023-05-10T05:07:14;13.40;99.90
59282;DHT22;45054;52.062;10.010;2023-05-10T05:09:39;13.30;99.90
59282;DHT22;45054;52.062;10.010;2023-05-10T05:12:05;13.30;99.90
59282;DHT22;45054;52.062;10.010;2023-05-10T05:14:31;13.20;99.90
59282;DHT22;45054;52.062;10.010;2023-05-10T05:16:57;13.10;99.90
59282;DHT22;45054;52.062;10.010;2023-05-10T05:19:22;13.10;99.90
59282;DHT22;45054;52.062;10.010;2023-05-10T05:21:48;13.00;99.90
59282;DHT22;45054;52.062;10.010;2023-05-10T05:24:13;12.90;99.90
59282;DHT22;45054;52.062;10.010;2023-05-10T05:26:39;12.80;99.90
59282;DHT22;45054;52.062;10.010;2023-05-10T05:29:04;12.60;99.90
59282;DHT22;45054;52.062;10.010;2023-05-10T05:31:31;12.60;99.90
59282;DHT22;45054;52.062;10.010;2023-05-10T05:33:56;12.50;99.90
59282;DHT22;45054;52.062;10.010;2023-05-10T05:36:22;12.60;99.90
59282;DHT22;45054;52.062;10.010;2023-05-10T05:38:47;12.60;99.90
59282;DHT22;45054;52.062;10.010;2023-05-10T05:41:13;12.60;99.90
59282;DHT22;45054;52.062;10.010;2023-05-10T05:43:38;12.60;99.90
59282;DHT22;45054;52.062;10.010;2023-05-10T05:46:04;12.60;99.90
59282;DHT22;45054;52.062;10.010;2023-05-10T05:48:31;12.60;99.90
59282;DHT22;45054;52.062;10.010;2023-05-10T05:50:56;12.70;99.90
59282;DHT22;45054;52.062;10.010;2023-05-10T05:53:22;12.70;99.90
59282;DHT22;45054;52.062;10.010;2023-05-10T05:55:50;12.70;99.90
59282;DHT22;45054;52.062;10.010;2023-05-10T05:58:16;12.70;99.90
59282;DHT22;45054;52.062;10.010;2023-05-10T06:00:41;12.60;99.90
59282;DHT22;45054;52.062;10.010;2023-05-10T06:03:07;12.70;99.90
59282;DHT22;45054;52.062;10.010;2023-05-10T06:05:33;12.70;99.90
59282;DHT22;45054;52.062;10.010;2023-05-10T06:07:59;12.70;99.90
59282;DHT22;45054;52.062;10.010;2023-05-10T06:10:25;12.70;99.90
59282;DHT22;45054;52.062;10.010;2023-05-10T06:12:50;12.70;99.90
59282;DHT22;45054;52.062;10.010;2023-05-10T06:15:16;12.80;99.90
59282;DHT22;45054;52.062;10.010;2023-05-10T06:17:41;12.80;99.90
59282;DHT22;45054;52.062;10.010;2023-05-10T06:20:07;12.90;99.90
59282;DHT22;45054;52.062;10.010;2023-05-10T06:22:34;12.90;99.90
59282;DHT22;45054;52.062;10.010;2023-05-10T06:24:59;12.90;99.90
59282;DHT22;45054;52.062;10.010;2023-05-10T06:27:25;12.90;99.90
59282;DHT22;45054;52.062;10.010;2023-05-10T06:29:50;12.90;99.90
59282;DHT22;45054;52.062;10.010;2023-05-10T06:32:16;12.90;99.90
59282;DHT22;45054;52.062;10.010;2023-05-10T06:34:41;12.90;99.90
59282;DHT22;45054;52.062;10.010;2023-05-10T06:37:06;12.90;99.90
59282;DHT22;45054;52.062;10.010;2023-05-10T06:39:33;12.90;99.90
59282;DHT22;45054;52.062;10.010;2023-05-10T06:41:59;13.00;99.90
59282;DHT22;45054;52.062;10.010;2023-05-10T06:44:24;13.00;99.90
59282;DHT22;45054;52.062;10.010;2023-05-10T06:46:49;13.10;99.90
59282;DHT22;45054;52.062;10.010;2023-05-10T06:49:15;13.10;99.90
59282;DHT22;45054;52.062;10.010;2023-05-10T06:51:40;13.20;99.90
59282;DHT22;45054;52.062;10.010;2023-05-10T06:54:06;13.20;99.90
59282;DHT22;45054;52.062;10.010;2023-05-10T06:56:33;13.20;99.90
59282;DHT22;45054;52.062;10.010;2023-05-10T06:58:58;13.30;99.90
59282;DHT22;45054;52.062;10.010;2023-05-10T07:01:23;13.30;99.90
59282;DHT22;45054;52.062;10.010;2023-05-10T07:03:49;13.40;99.90
59282;DHT22;45054;52.062;10.010;2023-05-10T07:06:14;13.40;99.90
59282;DHT22;45054;52.062;10.010;2023-05-10T07:08:40;13.50;99.90
59282;DHT22;45054;52.062;10.010;2023-05-10T07:11:06;13.60;99.90
59282;DHT22;45054;52.062;10.010;2023-05-10T07:13:32;13.60;99.90
59282;DHT22;45054;52.062;10.010;2023-05-10T07:15:59;13.60;99.90
59282;DHT22;45054;52.062;10.010;2023-05-10T07:18:25;13.60;99.90
59282;DHT22;45054;52.062;10.010;2023-05-10T07:20:50;13.60;99.90
59282;DHT22;45054;52.062;10.010;2023-05-10T07:23:16;13.60;99.90
59282;DHT22;45054;52.062;10.010;2023-05-10T07:25:41;13.60;99.90
59282;DHT22;45054;52.062;10.010;2023-05-10T07:28:06;13.60;99.90
59282;DHT22;45054;52.062;10.010;2023-05-10T07:30:33;13.60;99.90
59282;DHT22;45054;52.062;10.010;2023-05-10T07:32:59;13.60;99.90
59282;DHT22;45054;52.062;10.010;2023-05-10T07:35:24;13.60;99.90
59282;DHT22;45054;52.062;10.010;2023-05-10T07:37:50;13.60;99.90
59282;DHT22;45054;52.062;10.010;2023-05-10T07:40:15;13.60;99.90
59282;DHT22;45054;52.062;10.010;2023-05-10T07:42:41;13.60;99.90
59282;DHT22;45054;52.062;10.010;2023-05-10T07:45:08;13.60;99.90
59282;DHT22;45054;52.062;10.010;2023-05-10T07:47:34;13.60;99.90
59282;DHT22;45054;52.062;10.010;2023-05-10T07:50:00;13.50;99.90
59282;DHT22;45054;52.062;10.010;2023-05-10T07:52:25;13.50;99.90
59282;DHT22;45054;52.062;10.010;2023-05-10T07:54:51;13.50;99.90
59282;DHT22;45054;52.062;10.010;2023-05-10T07:57:17;13.60;99.90
59282;DHT22;45054;52.062;10.010;2023-05-10T07:59:43;13.60;99.90
59282;DHT22;45054;52.062;10.010;2023-05-10T08:02:08;13.60;99.90
59282;DHT22;45054;52.062;10.010;2023-05-10T08:04:35;13.60;99.90
59282;DHT22;45054;52.062;10.010;2023-05-10T08:07:00;13.60;99.90
59282;DHT22;45054;52.062;10.010;2023-05-10T08:09:26;13.70;99.90
59282;DHT22;45054;52.062;10.010;2023-05-10T08:11:51;13.70;99.90
59282;DHT22;45054;52.062;10.010;2023-05-10T08:14:16;13.80;99.90
59282;DHT22;45054;52.062;10.010;2023-05-10T08:16:42;13.90;99.90
59282;DHT22;45054;52.062;10.010;2023-05-10T08:19:07;13.80;99.90
59282;DHT22;45054;52.062;10.010;2023-05-10T08:21:34;13.90;99.90
59282;DHT22;45054;52.062;10.010;2023-05-10T08:23:59;13.90;99.90
59282;DHT22;45054;52.062;10.010;2023-05-10T08:26:28;14.00;99.90
59282;DHT22;45054;52.062;10.010;2023-05-10T08:28:53;14.00;99.90
59282;DHT22;45054;52.062;10.010;2023-05-10T08:31:19;14.00;99.90
59282;DHT22;45054;52.062;10.010;2023-05-10T08:33:44;14.00;99.90
59282;DHT22;45054;52.062;10.010;2023-05-10T08:36:10;14.00;99.90
59282;DHT22;45054;52.062;10.010;2023-05-10T08:38:37;14.10;99.90
59282;DHT22;45054;52.062;10.010;2023-05-10T08:41:02;14.10;99.90
59282;DHT22;45054;52.062;10.010;2023-05-10T08:43:28;14.20;99.90
59282;DHT22;45054;52.062;10.010;2023-05-10T08:45:54;14.30;99.90
59282;DHT22;45054;52.062;10.010;2023-05-10T08:48:19;14.20;99.90
59282;DHT22;45054;52.062;10.010;2023-05-10T08:50:47;14.20;99.90
59282;DHT22;45054;52.062;10.010;2023-05-10T08:53:13;14.30;99.90
59282;DHT22;45054;52.062;10.010;2023-05-10T08:55:41;14.40;99.90
59282;DHT22;45054;52.062;10.010;2023-05-10T08:58:07;14.30;99.90
59282;DHT22;45054;52.062;10.010;2023-05-10T09:00:33;14.30;99.90
59282;DHT22;45054;52.062;10.010;2023-05-10T09:02:59;14.40;99.90
59282;DHT22;45054;52.062;10.010;2023-05-10T09:05:24;14.40;99.90
59282;DHT22;45054;52.062;10.010;2023-05-10T09:07:50;14.60;99.90
59282;DHT22;45054;52.062;10.010;2023-05-10T09:10:15;14.60;99.90
59282;DHT22;45054;52.062;10.010;2023-05-10T09:12:42;14.60;99.90
59282;DHT22;45054;52.062;10.010;2023-05-10T09:15:08;14.60;99.90
59282;DHT22;45054;52.062;10.010;2023-05-10T09:17:34;14.50;99.90
59282;DHT22;45054;52.062;10.010;2023-05-10T09:20:00;14.40;99.90
59282;DHT22;45054;52.062;10.010;2023-05-10T09:22:25;14.30;99.90
59282;DHT22;45054;52.062;10.010;2023-05-10T09:25:02;14.40;99.90
59282;DHT22;45054;52.062;10.010;2023-05-10T09:27:28;14.50;99.90
59282;DHT22;45054;52.062;10.010;2023-05-10T09:29:55;14.60;99.90
59282;DHT22;45054;52.062;10.010;2023-05-10T09:32:20;14.60;99.90
59282;DHT22;45054;52.062;10.010;2023-05-10T09:34:46;14.70;99.90
59282;DHT22;45054;52.062;10.010;2023-05-10T09:37:14;14.80;99.90
59282;DHT22;45054;52.062;10.010;2023-05-10T09:39:40;14.70;99.90
59282;DHT22;45054;52.062;10.010;2023-05-10T09:42:05;14.70;99.90
59282;DHT22;45054;52.062;10.010;2023-05-10T09:44:31;14.70;99.90
59282;DHT22;45054;52.062;10.010;2023-05-10T09:46:58;14.60;99.90
59282;DHT22;45054;52.062;10.010;2023-05-10T09:49:24;14.60;99.90
59282;DHT22;45054;52.062;10.010;2023-05-10T09:51:59;14.70;99.90
59282;DHT22;45054;52.062;10.010;2023-05-10T09:54:24;14.80;99.90
59282;DHT22;45054;52.062;10.010;2023-05-10T09:56:50;14.90;99.90
59282;DHT22;45054;52.062;10.010;2023-05-10T09:59:15;15.00;99.90
59282;DHT22;45054;52.062;10.010;2023-05-10T10:01:41;15.00;99.90
59282;DHT22;45054;52.062;10.010;2023-05-10T10:04:08;15.00;99.90
59282;DHT22;45054;52.062;10.010;2023-05-10T10:06:35;14.90;99.90
59282;DHT22;45054;52.062;10.010;2023-05-10T10:09:00;15.00;99.90
59282;DHT22;45054;52.062;10.010;2023-05-10T10:11:25;15.20;99.90
59282;DHT22;45054;52.062;10.010;2023-05-10T10:13:51;15.20;99.90
59282;DHT22;45054;52.062;10.010;2023-05-10T10:16:16;15.20;99.90
59282;DHT22;45054;52.062;10.010;2023-05-10T10:18:42;15.10;99.90
59282;DHT22;45054;52.062;10.010;2023-05-10T10:21:09;15.20;99.90
59282;DHT22;45054;52.062;10.010;2023-05-10T10:23:34;15.20;99.90
59282;DHT22;45054;52.062;10.010;2023-05-10T10:26:00;15.10;99.90
59282;DHT22;45054;52.062;10.010;2023-05-10T10:28:26;15.10;99.90
59282;DHT22;45054;52.062;10.010;2023-05-10T10:30:56;15.10;99.90
59282;DHT22;45054;52.062;10.010;2023-05-10T10:33:39;15.20;99.90
59282;DHT22;45054;52.062;10.010;2023-05-10T10:36:05;15.40;99.90
59282;DHT22;45054;52.062;10.010;2023-05-10T10:38:38;15.50;99.90
59282;DHT22;45054;52.062;10.010;2023-05-10T10:41:26;15.70;99.90
59282;DHT22;45054;52.062;10.010;2023-05-10T10:44:06;15.90;99.90
59282;DHT22;45054;52.062;10.010;2023-05-10T10:47:06;15.90;99.90
59282;DHT22;45054;52.062;10.010;2023-05-10T10:49:32;15.90;99.90
59282;DHT22;45054;52.062;10.010;2023-05-10T10:54:58;15.80;99.90
59282;DHT22;45054;52.062;10.010;2023-05-10T10:57:24;15.70;99.90
59282;DHT22;45054;52.062;10.010;2023-05-10T10:59:49;15.70;99.90
59282;DHT22;45054;52.062;10.010;2023-05-10T11:02:33;15.70;99.90
59282;DHT22;45054;52.062;10.010;2023-05-10T11:04:59;15.70;99.90
59282;DHT22;45054;52.062;10.010;2023-05-10T11:07:24;15.90;99.90
59282;DHT22;45054;52.062;10.010;2023-05-10T11:09:50;16.00;99.90
59282;DHT22;45054;52.062;10.010;2023-05-10T11:12:16;16.00;99.90
59282;DHT22;45054;52.062;10.010;2023-05-10T11:14:42;16.00;99.90
59282;DHT22;45054;52.062;10.010;2023-05-10T11:17:22;15.90;99.90
59282;DHT22;45054;52.062;10.010;2023-05-10T11:20:02;15.80;99.90
59282;DHT22;45054;52.062;10.010;2023-05-10T11:22:27;15.70;99.90
59282;DHT22;45054;52.062;10.010;2023-05-10T11:24:56;15.70;99.90
59282;DHT22;45054;52.062;10.010;2023-05-10T11:27:23;15.60;99.90
59282;DHT22;45054;52.062;10.010;2023-05-10T11:29:50;15.60;99.90
59282;DHT22;45054;52.062;10.010;2023-05-10T11:32:16;15.70;99.90
59282;DHT22;45054;52.062;10.010;2023-05-10T11:34:41;15.90;99.90
59282;DHT22;45054;52.062;10.010;2023-05-10T11:37:07;16.00;99.90
59282;DHT22;45054;52.062;10.010;2023-05-10T11:39:32;16.30;99.90
59282;DHT22;45054;52.062;10.010;2023-05-10T11:41:58;16.40;99.90
59282;DHT22;45054;52.062;10.010;2023-05-10T11:44:24;16.70;99.90
59282;DHT22;45054;52.062;10.010;2023-05-10T11:46:54;16.90;99.90
59282;DHT22;45054;52.062;10.010;2023-05-10T11:49:19;17.20;99.90
59282;DHT22;45054;52.062;10.010;2023-05-10T11:51:45;17.30;99.90
59282;DHT22;45054;52.062;10.010;2023-05-10T11:54:11;17.30;99.90
59282;DHT22;45054;52.062;10.010;2023-05-10T11:56:37;17.40;99.90
59282;DHT22;45054;52.062;10.010;2023-05-10T11:59:03;17.50;99.90
59282;DHT22;45054;52.062;10.010;2023-05-10T12:01:30;17.60;99.90
59282;DHT22;45054;52.062;10.010;2023-05-10T12:03:56;17.80;99.90
59282;DHT22;45054;52.062;10.010;2023-05-10T12:06:22;17.80;99.90
59282;DHT22;45054;52.062;10.010;2023-05-10T12:08:48;17.90;99.90
59282;DHT22;45054;52.062;10.010;2023-05-10T12:11:14;17.90;99.90
59282;DHT22;45054;52.062;10.010;2023-05-10T12:13:39;17.90;99.90
59282;DHT22;45054;52.062;10.010;2023-05-10T12:16:13;18.00;99.90
59282;DHT22;45054;52.062;10.010;2023-05-10T12:18:40;18.00;99.90
59282;DHT22;45054;52.062;10.010;2023-05-10T12:21:05;17.90;99.90
59282;DHT22;45054;52.062;10.010;2023-05-10T12:23:31;17.80;99.90
59282;DHT22;45054;52.062;10.010;2023-05-10T12:26:01;17.80;99.90
59282;DHT22;45054;52.062;10.010;2023-05-10T12:28:29;17.60;99.90
59282;DHT22;45054;52.062;10.010;2023-05-10T12:30:54;17.50;99.90
59282;DHT22;45054;52.062;10.010;2023-05-10T12:33:20;17.40;99.90
59282;DHT22;45054;52.062;10.010;2023-05-10T12:35:47;17.20;99.90
59282;DHT22;45054;52.062;10.010;2023-05-10T12:38:26;17.10;99.90
59282;DHT22;45054;52.062;10.010;2023-05-10T12:40:51;17.00;99.90
59282;DHT22;45054;52.062;10.010;2023-05-10T12:43:17;16.90;99.90
59282;DHT22;45054;52.062;10.010;2023-05-10T12:45:42;16.70;99.90
59282;DHT22;45054;52.062;10.010;2023-05-10T12:48:08;16.70;99.90
59282;DHT22;45054;52.062;10.010;2023-05-10T12:50:33;16.30;99.90
59282;DHT22;45054;52.062;10.010;2023-05-10T12:53:00;16.10;99.90
59282;DHT22;45054;52.062;10.010;2023-05-10T12:55:25;16.00;99.90
59282;DHT22;45054;52.062;10.010;2023-05-10T12:57:51;15.90;99.90
59282;DHT22;45054;52.062;10.010;2023-05-10T13:00:16;15.90;99.90
59282;DHT22;45054;52.062;10.010;2023-05-10T13:02:42;16.00;99.90
59282;DHT22;45054;52.062;10.010;2023-05-10T13:05:07;16.10;99.90
59282;DHT22;45054;52.062;10.010;2023-05-10T13:07:33;16.20;99.90
59282;DHT22;45054;52.062;10.010;2023-05-10T13:10:00;16.30;99.90
59282;DHT22;45054;52.062;10.010;2023-05-10T13:12:25;16.40;99.90
59282;DHT22;45054;52.062;10.010;2023-05-10T13:14:51;16.60;99.90
59282;DHT22;45054;52.062;10.010;2023-05-10T13:17:16;16.70;99.90
59282;DHT22;45054;52.062;10.010;2023-05-10T13:19:41;16.80;99.90
59282;DHT22;45054;52.062;10.010;2023-05-10T13:22:07;16.90;99.90
59282;DHT22;45054;52.062;10.010;2023-05-10T13:24:32;16.90;99.90
59282;DHT22;45054;52.062;10.010;2023-05-10T13:26:59;17.00;99.90
59282;DHT22;45054;52.062;10.010;2023-05-10T13:29:24;16.90;99.90
59282;DHT22;45054;52.062;10.010;2023-05-10T13:31:50;16.80;99.90
59282;DHT22;45054;52.062;10.010;2023-05-10T13:34:15;16.80;99.90
59282;DHT22;45054;52.062;10.010;2023-05-10T13:36:41;16.90;99.90
59282;DHT22;45054;52.062;10.010;2023-05-10T13:39:06;17.00;99.90
59282;DHT22;45054;52.062;10.010;2023-05-10T13:41:32;17.00;99.90
59282;DHT22;45054;52.062;10.010;2023-05-10T13:43:58;17.00;99.90
59282;DHT22;45054;52.062;10.010;2023-05-10T13:46:24;16.90;99.90
59282;DHT22;45054;52.062;10.010;2023-05-10T13:48:49;16.90;99.90
59282;DHT22;45054;52.062;10.010;2023-05-10T13:51:15;17.00;99.90
59282;DHT22;45054;52.062;10.010;2023-05-10T13:53:40;17.10;99.90
59282;DHT22;45054;52.062;10.010;2023-05-10T13:56:06;17.20;99.90
59282;DHT22;45054;52.062;10.010;2023-05-10T13:58:31;17.40;99.90
59282;DHT22;45054;52.062;10.010;2023-05-10T14:00:58;17.50;99.90
59282;DHT22;45054;52.062;10.010;2023-05-10T14:03:23;17.60;99.90
59282;DHT22;45054;52.062;10.010;2023-05-10T14:05:49;17.70;99.90
59282;DHT22;45054;52.062;10.010;2023-05-10T14:08:14;17.70;99.90
59282;DHT22;45054;52.062;10.010;2023-05-10T14:10:40;17.70;99.90
59282;DHT22;45054;52.062;10.010;2023-05-10T14:13:05;17.70;99.90
59282;DHT22;45054;52.062;10.010;2023-05-10T14:15:30;17.80;99.90
59282;DHT22;45054;52.062;10.010;2023-05-10T14:17:57;17.90;99.90
59282;DHT22;45054;52.062;10.010;2023-05-10T14:20:23;18.00;99.90
59282;DHT22;45054;52.062;10.010;2023-05-10T14:22:48;18.00;99.90
59282;DHT22;45054;52.062;10.010;2023-05-10T14:25:13;18.10;99.90
59282;DHT22;45054;52.062;10.010;2023-05-10T14:27:39;18.10;99.90
59282;DHT22;45054;52.062;10.010;2023-05-10T14:30:05;18.10;99.90
59282;DHT22;45054;52.062;10.010;2023-05-10T14:32:31;18.20;99.90
59282;DHT22;45054;52.062;10.010;2023-05-10T14:34:57;18.20;99.90
59282;DHT22;45054;52.062;10.010;2023-05-10T14:37:23;18.20;99.90
59282;DHT22;45054;52.062;10.010;2023-05-10T14:39:48;18.20;99.90
59282;DHT22;45054;52.062;10.010;2023-05-10T14:42:14;18.30;99.90
59282;DHT22;45054;52.062;10.010;2023-05-10T14:44:39;18.30;99.90
59282;DHT22;45054;52.062;10.010;2023-05-10T14:47:05;18.30;99.90
59282;DHT22;45054;52.062;10.010;2023-05-10T14:49:30;18.40;99.90
59282;DHT22;45054;52.062;10.010;2023-05-10T14:51:57;18.50;99.90
59282;DHT22;45054;52.062;10.010;2023-05-10T14:54:22;18.50;99.90
59282;DHT22;45054;52.062;10.010;2023-05-10T14:56:48;18.60;99.90
59282;DHT22;45054;52.062;10.010;2023-05-10T14:59:13;18.70;99.90
59282;DHT22;45054;52.062;10.010;2023-05-10T15:01:39;18.70;99.90
59282;DHT22;45054;52.062;10.010;2023-05-10T15:04:04;18.70;99.90
59282;DHT22;45054;52.062;10.010;2023-05-10T15:06:30;18.60;99.90
59282;DHT22;45054;52.062;10.010;2023-05-10T15:08:57;18.50;99.90
59282;DHT22;45054;52.062;10.010;2023-05-10T15:11:22;18.50;99.90
59282;DHT22;45054;52.062;10.010;2023-05-10T15:13:48;18.60;99.90
59282;DHT22;45054;52.062;10.010;2023-05-10T15:16:13;19.00;99.90